Flight Track Log - Related Links

Times and Time Zones

All times are in EDT time to prevent confusion due to time zone crossing. See the SWA525 flight status page for this flight to view local times or setup timezone preferences in your user account.


Time Position Orientation Groundspeed Altitude Reporting Facility
EDT Latitude Longitude Course Direction KTS MPH feet Rate Location/Type
Sun 04:19:20 PM 32.8167 -96.8000 121° Southeast 205 236 2,600  Level Dallas / Fort Worth TRACON
Sun 04:20:20 PM 32.7667 -96.7500 140° Southeast 241 277 5,700 2,494 Climbing Dallas / Fort Worth TRACON
Sun 04:21:54 PM 32.7517 -96.6206 98° East 276 318 9,000 2,026 Climbing Fort Worth Center
Sun 04:22:54 PM 32.7572 -96.5117 86° East 281 323 10,900 2,033 Climbing Fort Worth Center
Sun 04:23:55 PM 32.7583 -96.4081 89° East 327 376 13,100 2,600 Climbing Fort Worth Center
Sun 04:24:00 PM 32.7782 -96.4718 102° East  Level FlightAware Approximate
Sun 04:24:54 PM 32.7531 -96.2797 93° East 348 400 16,100  Level Fort Worth Center
Sun 04:25:54 PM 32.7356 -96.1711 101° East 364 419 18,300 2,350 Climbing Fort Worth Center
Sun 04:26:54 PM 32.7153 -96.0356 100° East 376 433 20,800 2,100 Climbing Fort Worth Center
Sun 04:27:54 PM 32.6953 -95.9222 102° East 376 433 22,500 1,750 Climbing Fort Worth Center
Sun 04:28:54 PM 32.6789 -95.7894 98° East 399 459 24,300 1,650 Climbing Fort Worth Center
Sun 04:29:54 PM 32.6606 -95.6589 99° East 410 472 25,800 1,500 Climbing Fort Worth Center
Sun 04:30:54 PM 32.6686 -95.5058 86° East 415 478 27,300 1,350 Climbing Fort Worth Center
Sun 04:31:54 PM 32.6769 -95.3650 86° East 424 488 28,500 1,150 Climbing Fort Worth Center
Sun 04:32:54 PM 32.6808 -95.2314 88° East 429 494 29,600 1,200 Climbing Fort Worth Center
Sun 04:33:54 PM 32.6908 -95.0856 85° East 436 502 30,900 1,150 Climbing Fort Worth Center
Sun 04:34:54 PM 32.7025 -94.9347 85° East 447 514 31,900 1,050 Climbing Fort Worth Center
Sun 04:35:54 PM 32.7036 -94.7842 89° East 452 520 33,000 1,150 Climbing Fort Worth Center
Sun 04:36:54 PM 32.6589 -94.6400 110° East 452 520 34,200 1,000 Climbing Fort Worth Center
Sun 04:37:54 PM 32.6097 -94.4983 112° Southeast 447 514 35,000 400 Climbing Fort Worth Center
Sun 04:38:54 PM 32.5625 -94.3569 112° Southeast 458 527 35,000  Level Fort Worth Center
Sun 04:39:54 PM 32.5131 -94.2108 112° Southeast 469 540 35,000  Level Fort Worth Center
Sun 04:40:54 PM 32.4611 -94.0625 113° Southeast 474 545 35,000  Level Fort Worth Center
Sun 04:41:54 PM 32.4111 -93.9167 112° Southeast 474 545 35,000  Level Fort Worth Center
Sun 04:42:54 PM 32.3611 -93.7686 112° Southeast 474 545 35,000  Level Fort Worth Center
Sun 04:45:09 PM 32.2467 -93.4508 113° Southeast 477 549 35,000  Level Houston Center
Sun 04:46:11 PM 32.1958 -93.3028 112° Southeast 483 556 35,000  Level Houston Center
Sun 04:47:13 PM 32.1331 -93.1253 113° Southeast 486 559 35,000  Level Houston Center
Sun 04:48:15 PM 32.0811 -92.9769 112° Southeast 489 563 35,000  Level Houston Center
Sun 04:49:17 PM 32.0336 -92.8431 113° Southeast 493 567 35,000  Level Houston Center
Sun 04:50:19 PM 31.9783 -92.6953 114° Southeast 493 567 35,000  Level Houston Center
Sun 04:51:21 PM 31.8636 -92.5728 138° Southeast 463 533 35,000  Level Houston Center
Sun 04:52:23 PM 31.7619 -92.4778 142° Southeast 464 534 35,000  Level Houston Center
Sun 04:53:25 PM 31.6625 -92.3836 141° Southeast 462 532 35,000  Level Houston Center
Sun 04:54:28 PM 31.5631 -92.2897 141° Southeast 459 528 35,000  Level Houston Center
Sun 04:55:30 PM 31.4619 -92.1950 141° Southeast 463 533 35,000  Level Houston Center
Sun 04:56:32 PM 31.3603 -92.1008 142° Southeast 465 535 35,000  Level Houston Center
Sun 04:57:34 PM 31.2425 -91.9903 141° Southeast 469 540 35,000 -484 Level Houston Center
Sun 04:58:36 PM 31.1414 -91.8958 141° Southeast 466 536 34,000 -1,548 Descending Houston Center
Sun 04:59:38 PM 31.0450 -91.7950 138° Southeast 467 537 31,800 -2,419 Descending Houston Center
Sun 05:00:40 PM 30.9603 -91.6783 130° Southeast 470 541 29,000 -2,419 Descending Houston Center
Sun 05:01:42 PM 30.8608 -91.5422 130° Southeast 460 529 26,800 -2,468 Descending Houston Center
Sun 05:02:44 PM 30.7931 -91.4275 124° Southeast 440 506 23,900 -2,758 Descending Houston Center
Sun 05:03:46 PM 30.7403 -91.3192 120° Southeast 430 495 21,100 -2,640 Descending Houston Center
Sun 05:04:49 PM 30.6747 -91.1819 119° Southeast 408 470 18,400 -2,304 Descending Houston Center
Sun 05:05:51 PM 30.6247 -91.0769 119° Southeast 376 433 16,300 -2,050 Descending Houston Center
Sun 05:06:49 PM 30.5808 -90.9756 117° Southeast 339 390 14,300 -1,915 Descending Houston Center
Sun 05:07:25 PM 30.5544 -90.9186 118° Southeast 325 374 13,300 -1,545 Descending Houston Center
Sun 05:07:55 PM 30.5356 -90.8911 129° Southeast 315 362 12,600 -1,770 Descending Houston Center
Sun 05:08:26 PM 30.5044 -90.8431 127° Southeast 294 338 11,500 -1,645 Descending Houston Center
Sun 05:08:57 PM 30.4872 -90.8153 126° Southeast 295 339 10,900 -1,770 Descending Houston Center
Sun 05:09:27 PM 30.4486 -90.7822 144° Southeast 287 330 9,700 -1,839 Descending Houston Center
Sun 05:09:59 PM 30.4250 -90.7647 147° Southeast 272 313 9,000 -1,800 Descending Houston Center
Sun 05:10:27 PM 30.3806 -90.7389 153° Southeast 274 315 7,900 -1,935 Descending Houston Center
Sun 05:11:01 PM 30.3431 -90.7125 149° Southeast 279 321 7,000 -1,612 Descending Houston Center
Sun 05:11:34 PM 30.3039 -90.6861 150° Southeast 278 320 6,100 -1,548 Descending Houston Center
Sun 05:12:03 PM 30.2767 -90.6706 154° Southeast 276 318 5,400 -1,200 Descending Houston Center
Sun 05:12:29 PM 30.2467 -90.6497 149° Southeast 276 318 5,000 -484 Descending Houston Center
Sun 05:13:05 PM 30.2128 -90.6231 146° Southeast 277 319 4,900  Descending Houston Center
Sun 05:13:36 PM 30.1842 -90.5869 133° Southeast 260 299 5,000  Climbing Houston Center
Sun 05:14:07 PM 30.1656 -90.5653 135° Southeast 258 297 4,900 -500 Descending Houston Center
Sun 05:14:36 PM 30.1389 -90.5333 134° Southeast 232 267 4,500 -857 Descending Houston Center
Sun 05:15:10 PM 30.1217 -90.5139 136° Southeast 237 273 4,000 -1,574 Descending Houston Center
Sun 05:15:37 PM 30.0956 -90.4822 134° Southeast 221 254 2,900 -1,742 Descending Houston Center
Sun 05:16:12 PM 30.0675 -90.4503 135° Southeast 231 266 2,200 -787 Descending Houston Center
Sun 05:16:38 PM 30.0481 -90.4286 136° Southeast 239 275 2,100 -387 Descending Houston Center
Sun 05:17:14 PM 30.0253 -90.3967 129° Southeast 230 265 1,800 -787 Descending Houston Center
Sun 05:17:39 PM 30.0172 -90.3675 108° East 205 236 1,300 -871 Descending Houston Center
Sun 05:18:16 PM 30.0114 -90.3403 104° East 203 234 900 -636 Descending Houston Center
Sun 05:18:45 PM 30.0050 -90.3153 106° East 141 162 600 -677 Descending Houston Center
Sun 05:19:18 PM 30.0011 -90.2961 103° East 171 197 200 -316 Descending Houston Center
Sun 05:20:20 PM 29.9897 -90.2528 107° East 166 191 100 -97 Descending Houston Center
Sun 05:22:00 PM 29.9833 -90.2500 101° East  Level FlightAware Approximate

Login

Don't have an account? Register now (free) for customized features, flight alerts, and more!